Time;durP1;ratioP1;P1;durP2;ratioP2;P2;SDS_P1;SDS_P2;PMS_P1;PMS_P2;Temp;Humidity;BMP_temperature;BMP_pressure;BME280_temperature;BME280_humidity;BME280_pressure;Samples;Min_cycle;Max_cycle;Signal;HPM_P1;HPM_P2
2023/03/06 00:01:18;;;;;;;9.27;4.40;;;;;;;3.90;100.00;100829.84;5254087;28;20598;-73
2023/03/06 00:03:49;;;;;;;6.30;4.20;;;;;;;3.84;100.00;100833.47;5254903;28;20467;-71
2023/03/06 00:06:20;;;;;;;7.07;4.73;;;;;;;3.83;100.00;100823.16;5255073;28;20063;-74
2023/03/06 00:08:53;;;;;;;6.77;4.83;;;;;;;3.77;100.00;100806.06;5253866;28;20123;-72
2023/03/06 00:11:24;;;;;;;5.50;4.03;;;;;;;3.75;100.00;100819.06;5255286;28;20136;-74
2023/03/06 00:13:55;;;;;;;7.97;4.53;;;;;;;3.68;100.00;100793.41;5255557;28;20677;-74
2023/03/06 00:16:26;;;;;;;8.60;5.10;;;;;;;3.75;100.00;100819.06;5254814;28;20108;-74
2023/03/06 00:18:58;;;;;;;6.43;4.67;;;;;;;3.71;100.00;100806.28;5253692;28;20476;-74
2023/03/06 00:21:29;;;;;;;7.07;4.80;;;;;;;3.71;100.00;100799.34;5254291;28;20032;-73
2023/03/06 00:24:00;;;;;;;6.93;5.40;;;;;;;3.73;100.00;100801.91;5254190;28;20041;-73
2023/03/06 00:26:34;;;;;;;5.57;4.67;;;;;;;3.75;100.00;100798.34;5255485;28;20098;-74
2023/03/06 00:29:06;;;;;;;7.28;5.20;;;;;;;3.70;100.00;100794.22;5255017;28;20029;-74
2023/03/06 00:31:38;;;;;;;8.23;5.07;;;;;;;3.63;100.00;100794.41;5255255;28;20036;-74
2023/03/06 00:34:09;;;;;;;9.27;5.33;;;;;;;3.73;100.00;100796.72;5254868;28;20032;-73
2023/03/06 00:36:40;;;;;;;8.00;5.30;;;;;;;3.66;100.00;100795.22;5254700;28;20064;-74
2023/03/06 00:39:12;;;;;;;8.87;5.60;;;;;;;3.54;100.00;100770.53;5253418;28;20036;-73
2023/03/06 00:41:43;;;;;;;9.63;5.50;;;;;;;3.63;100.00;100781.44;5255186;28;20032;-73
2023/03/06 00:44:14;;;;;;;8.93;5.43;;;;;;;3.66;100.00;100782.25;5254867;28;20112;-74
2023/03/06 00:46:45;;;;;;;7.20;5.73;;;;;;;3.64;100.00;100784.91;5254513;28;20059;-74
2023/03/06 00:49:17;;;;;;;7.27;6.13;;;;;;;3.46;100.00;100763.00;5254487;28;20033;-74
2023/03/06 00:51:48;;;;;;;9.23;6.20;;;;;;;3.53;100.00;100776.59;5237002;28;20029;-74
2023/03/06 00:54:19;;;;;;;9.73;6.23;;;;;;;3.53;100.00;100772.28;5236125;28;20122;-75
2023/03/06 00:56:51;;;;;;;9.80;6.27;;;;;;;3.51;100.00;100768.88;5255000;28;20129;-75
2023/03/06 00:59:22;;;;;;;11.63;6.10;;;;;;;3.55;100.00;100770.50;5254342;28;20028;-74
2023/03/06 01:01:53;;;;;;;7.27;6.27;;;;;;;3.60;100.00;100773.78;5236974;28;20096;-73
2023/03/06 01:04:25;;;;;;;8.57;6.60;;;;;;;3.50;100.00;100764.63;5236298;28;20129;-74
2023/03/06 01:06:56;;;;;;;7.23;6.20;;;;;;;3.52;100.00;100762.81;5236790;28;20471;-72
2023/03/06 01:09:28;;;;;;;10.90;8.07;;;;;;;3.49;100.00;100763.75;5253774;28;20057;-74
2023/03/06 01:11:59;;;;;;;9.97;6.93;;;;;;;3.38;100.00;100758.94;5254236;28;20036;-72
2023/03/06 01:14:30;;;;;;;7.60;6.43;;;;;;;3.41;100.00;100759.72;5254665;28;20202;-74
2023/03/06 01:17:02;;;;;;;9.67;6.90;;;;;;;3.37;100.00;100754.63;5253285;28;20082;-74
2023/03/06 01:19:33;;;;;;;8.17;6.53;;;;;;;3.33;100.00;100759.97;5234820;28;20025;-72
2023/03/06 01:22:04;;;;;;;8.83;6.93;;;;;;;2.87;100.00;100748.34;5234068;28;20067;-74
2023/03/06 01:24:36;;;;;;;10.20;7.43;;;;;;;3.08;100.00;100753.78;5254280;28;20108;-74
2023/03/06 01:27:07;;;;;;;9.87;6.73;;;;;;;2.93;100.00;100752.50;5236097;28;20475;-74
2023/03/06 01:29:38;;;;;;;10.30;7.83;;;;;;;3.21;100.00;100762.00;5254530;28;20097;-74
2023/03/06 01:32:10;;;;;;;10.97;7.10;;;;;;;3.17;100.00;100744.03;5237345;28;20081;-73
2023/03/06 01:34:41;;;;;;;8.93;6.33;;;;;;;3.22;100.00;100747.34;5251455;28;20086;-74
2023/03/06 01:37:12;;;;;;;9.30;7.50;;;;;;;3.24;100.00;100748.16;5253526;28;20043;-73
2023/03/06 01:39:43;;;;;;;9.43;7.40;;;;;;;3.22;100.00;100743.03;5255799;28;20099;-74
2023/03/06 01:42:15;;;;;;;10.53;7.37;;;;;;;3.28;100.00;100746.31;5265916;28;20033;-73
2023/03/06 01:45:16;;;;;;;9.73;7.10;;;;;;;3.32;100.00;100747.91;5236560;28;20032;-74
2023/03/06 01:47:47;;;;;;;9.53;6.60;;;;;;;3.24;100.00;100738.66;5232433;28;20472;-74
2023/03/06 01:50:18;;;;;;;9.60;7.40;;;;;;;3.24;100.00;100735.22;5252772;28;20110;-74
2023/03/06 01:52:55;;;;;;;8.63;6.90;;;;;;;3.23;100.00;100733.53;5252966;28;20043;-74
2023/03/06 01:55:33;;;;;;;8.97;6.50;;;;;;;3.21;100.00;100736.13;5253864;28;20041;-74
2023/03/06 01:58:11;;;;;;;11.10;7.77;;;;;;;3.16;100.00;100727.66;5235782;28;20029;-74
2023/03/06 02:00:43;;;;;;;11.07;7.17;;;;;;;2.99;100.00;100725.59;5254449;28;20611;-74
2023/03/06 02:03:20;;;;;;;10.97;8.37;;;;;;;3.11;100.00;100720.06;5253310;28;20112;-74
2023/03/06 02:05:52;;;;;;;11.20;8.13;;;;;;;2.92;100.00;100691.28;5269922;22;20064;-75
2023/03/06 02:08:25;;;;;;;9.33;7.67;;;;;;;3.08;100.00;100722.75;5235298;28;20511;-76
2023/03/06 02:11:08;;;;;;;10.63;7.30;;;;;;;2.78;100.00;100674.47;5254604;28;20078;-76
2023/03/06 02:13:41;;;;;;;10.93;6.93;;;;;;;2.65;100.00;100665.38;5237022;28;20075;-77
2023/03/06 02:16:17;;;;;;;14.70;8.00;;;;;;;2.79;100.00;100683.06;5236513;28;20044;-76
2023/03/06 02:18:54;;;;;;;11.20;7.37;;;;;;;2.88;100.00;100693.13;5254724;28;21053;-76
2023/03/06 02:22:11;;;;;;;10.30;7.10;;;;;;;2.96;100.00;100707.56;5236259;28;20025;-76
2023/03/06 02:25:00;;;;;;;9.20;7.30;;;;;;;2.72;100.00;100676.38;5232228;28;20040;-76
2023/03/06 02:27:31;;;;;;;8.80;6.73;;;;;;;2.61;100.00;100661.19;5236251;28;20037;-76
2023/03/06 02:30:07;;;;;;;11.27;7.27;;;;;;;2.74;100.00;100695.28;5239060;28;20040;-75
2023/03/06 02:32:39;;;;;;;9.67;6.70;;;;;;;2.56;100.00;100681.16;5257713;28;20114;-76
2023/03/06 02:35:25;;;;;;;10.50;7.80;;;;;;;2.24;100.00;100614.81;5243666;28;20059;-76
2023/03/06 02:38:03;;;;;;;9.20;6.87;;;;;;;2.40;100.00;100663.50;5259786;28;20093;-76
2023/03/06 02:40:37;;;;;;;8.90;6.63;;;;;;;2.12;100.00;100610.84;5260566;28;20028;-76
2023/03/06 02:43:11;;;;;;;8.27;6.60;;;;;;;2.13;100.00;100624.63;5277872;28;20024;-76
2023/03/06 02:45:48;;;;;;;9.93;7.47;;;;;;;2.51;100.00;100676.13;5260194;28;20052;-76
2023/03/06 02:48:22;;;;;;;11.60;8.10;;;;;;;2.34;100.00;100650.75;5258068;28;20833;-76
2023/03/06 02:51:27;;;;;;;8.77;6.77;;;;;;;2.16;100.00;100625.38;5249276;28;20427;-77
2023/03/06 02:54:06;;;;;;;10.50;7.63;;;;;;;1.89;100.00;100589.09;5277864;28;20024;-76
2023/03/06 02:56:41;;;;;;;11.10;7.73;;;;;;;2.10;100.00;100627.28;5260895;28;20115;-76
2023/03/06 02:59:12;;;;;;;11.32;7.95;;;;;;;1.84;100.00;100584.94;5278411;28;20128;-76
2023/03/06 03:01:59;;;;;;;11.00;8.10;;;;;;;2.36;100.00;100656.69;5260272;28;20111;-76
2023/03/06 03:04:30;;;;;;;11.93;8.63;;;;;;;1.99;100.00;100607.75;5239626;28;20033;-76
2023/03/06 03:07:15;;;;;;;11.13;8.00;;;;;;;2.28;100.00;100644.88;5238449;28;20140;-74
2023/03/06 03:09:46;;;;;;;11.90;8.75;;;;;;;2.08;100.00;100603.25;5240027;28;20163;-77
2023/03/06 03:12:17;;;;;;;9.93;7.57;;;;;;;1.79;100.00;100626.38;5256767;28;20790;-77
2023/03/06 03:14:49;;;;;;;11.93;9.00;;;;;;;2.11;100.00;100619.47;5257258;28;20028;-77
2023/03/06 03:17:21;;;;;;;14.40;9.37;;;;;;;2.07;100.00;100604.97;5256847;28;20045;-77
2023/03/06 03:19:53;;;;;;;10.73;8.53;;;;;;;2.13;100.00;100609.94;5256450;28;20044;-76
2023/03/06 03:22:24;;;;;;;10.27;8.43;;;;;;;2.08;100.00;100609.25;5237661;28;20485;-75
2023/03/06 03:24:55;;;;;;;10.10;8.60;;;;;;;2.07;100.00;100630.81;5256347;28;20064;-75
2023/03/06 03:27:27;;;;;;;12.53;8.73;;;;;;;1.93;100.00;100590.72;5257686;28;20729;-76
2023/03/06 03:29:59;;;;;;;14.13;9.47;;;;;;;2.25;100.00;100650.09;5238962;28;20106;-75
2023/03/06 03:32:30;;;;;;;12.53;9.30;;;;;;;2.30;100.00;100635.31;5238242;28;20033;-76
2023/03/06 03:35:03;;;;;;;10.93;9.30;;;;;;;2.09;100.00;100595.44;5256668;28;20036;-76
2023/03/06 03:37:35;;;;;;;11.20;9.03;;;;;;;1.93;100.00;100590.72;5255467;28;20112;-76
2023/03/06 03:40:10;;;;;;;11.23;8.57;;;;;;;2.08;100.00;100601.47;5269335;28;20047;-75
2023/03/06 03:42:41;;;;;;;12.03;8.70;;;;;;;2.08;100.00;100590.31;5276797;28;20447;-75
2023/03/06 03:45:12;;;;;;;10.17;9.07;;;;;;;2.00;100.00;100606.88;5265630;28;20056;-74
2023/03/06 03:47:44;;;;;;;12.70;9.67;;;;;;;1.92;100.00;100578.66;5256392;28;20068;-76
2023/03/06 03:50:15;;;;;;;14.17;11.30;;;;;;;1.95;100.00;100574.31;5274936;28;20086;-76
2023/03/06 03:52:47;;;;;;;12.13;9.77;;;;;;;1.91;100.00;100570.97;5276558;28;20028;-76
2023/03/06 03:55:18;;;;;;;11.90;9.83;;;;;;;2.26;100.00;100625.13;5276190;28;21061;-76
2023/03/06 03:57:50;;;;;;;13.97;11.00;;;;;;;2.00;100.00;100583.63;5276998;28;20039;-76
2023/03/06 04:00:21;;;;;;;12.73;10.60;;;;;;;2.06;100.00;100577.44;5277183;28;20039;-76
2023/03/06 04:02:52;;;;;;;14.10;11.53;;;;;;;1.85;100.00;100556.47;5277578;28;20463;-76
2023/03/06 04:05:24;;;;;;;15.17;12.43;;;;;;;1.89;100.00;100539.16;5259157;28;20056;-76
2023/03/06 04:07:55;;;;;;;17.10;13.63;;;;;;;1.78;100.00;100531.75;5276357;28;20033;-76
2023/03/06 04:10:26;;;;;;;15.17;11.43;;;;;;;1.87;100.00;100554.72;5259378;28;20034;-76
2023/03/06 04:12:58;;;;;;;15.83;13.00;;;;;;;1.90;100.00;100558.94;5259061;28;20046;-76
2023/03/06 04:15:29;;;;;;;15.57;12.73;;;;;;;2.13;100.00;100588.47;5275958;28;20024;-76
2023/03/06 04:18:01;;;;;;;18.50;13.87;;;;;;;1.97;100.00;100568.22;5258621;28;20032;-76
2023/03/06 04:20:32;;;;;;;18.20;13.20;;;;;;;1.84;100.00;100570.28;5258642;28;20589;-77
2023/03/06 04:23:04;;;;;;;21.53;14.83;;;;;;;1.88;100.00;100564.16;5275859;28;20029;-76
2023/03/06 04:25:35;;;;;;;20.53;15.37;;;;;;;1.88;100.00;100571.91;5277486;28;20071;-76
2023/03/06 04:28:07;;;;;;;18.10;14.47;;;;;;;1.88;100.00;100566.75;5276619;28;20516;-76
2023/03/06 04:30:39;;;;;;;21.33;14.83;;;;;;;1.86;100.00;100565.94;5259103;28;20182;-77
2023/03/06 04:33:10;;;;;;;21.37;15.33;;;;;;;2.03;100.00;100595.59;5276130;28;20808;-76
2023/03/06 04:35:41;;;;;;;23.47;16.67;;;;;;;1.87;100.00;100580.53;5277164;28;20471;-76
2023/03/06 04:38:13;;;;;;;20.50;15.80;;;;;;;1.80;100.00;100554.03;5276134;28;20031;-77
2023/03/06 04:40:44;;;;;;;24.43;17.97;;;;;;;2.01;100.00;100587.03;5258542;28;20043;-76
2023/03/06 04:43:15;;;;;;;24.03;17.60;;;;;;;1.73;100.00;100536.19;5276392;28;20391;-76
2023/03/06 04:45:47;;;;;;;26.33;17.80;;;;;;;1.65;100.00;100545.00;5276399;28;20496;-77
2023/03/06 04:48:18;;;;;;;24.90;17.67;;;;;;;1.60;100.00;100526.19;5264643;28;20102;-76
2023/03/06 04:50:49;;;;;;;26.67;19.17;;;;;;;1.77;100.00;100542.94;5255554;28;20112;-76
2023/03/06 04:53:21;;;;;;;24.33;17.60;;;;;;;1.72;100.00;100534.47;5253580;28;20035;-75
2023/03/06 04:55:52;;;;;;;24.90;17.17;;;;;;;1.83;100.00;100557.44;5254834;28;20488;-76
2023/03/06 04:58:24;;;;;;;25.80;18.97;;;;;;;1.80;100.00;100545.44;5254754;28;20056;-75
2023/03/06 05:00:56;;;;;;;25.63;19.57;;;;;;;1.56;100.00;100511.66;5262539;28;20032;-76
2023/03/06 05:03:27;;;;;;;25.30;19.40;;;;;;;1.66;100.00;100531.19;5275521;28;20515;-76
2023/03/06 05:05:58;;;;;;;26.07;19.63;;;;;;;1.64;100.00;100521.78;5274833;28;21312;-76
2023/03/06 05:08:30;;;;;;;25.33;18.90;;;;;;;1.80;100.00;100548.00;5256354;28;20138;-77
2023/03/06 05:11:02;;;;;;;26.10;20.47;;;;;;;1.92;100.00;100570.09;5274846;28;20033;-76
2023/03/06 05:13:33;;;;;;;26.27;19.93;;;;;;;1.61;100.00;100533.03;5275244;28;20024;-76
2023/03/06 05:16:06;;;;;;;28.40;19.43;;;;;;;1.87;100.00;100559.03;5275229;28;20058;-77
2023/03/06 05:18:37;;;;;;;28.37;21.10;;;;;;;1.55;100.00;100518.56;5275254;28;20115;-76
2023/03/06 05:21:08;;;;;;;30.73;21.53;;;;;;;1.82;100.00;100546.25;5274998;28;20560;-76
2023/03/06 05:23:40;;;;;;;26.73;20.27;;;;;;;1.64;100.00;100509.72;5240185;28;20037;-76
2023/03/06 05:26:13;;;;;;;32.67;21.70;;;;;;;1.65;100.00;100516.59;5274931;28;20070;-76
2023/03/06 05:28:44;;;;;;;30.40;21.20;;;;;;;1.76;100.00;100525.78;5275536;28;20060;-76
2023/03/06 05:31:16;;;;;;;28.10;21.63;;;;;;;1.69;100.00;100528.50;5256977;28;20071;-76
2023/03/06 05:33:47;;;;;;;29.90;21.97;;;;;;;1.67;100.00;100525.13;5257677;28;20016;-76
2023/03/06 05:36:19;;;;;;;32.87;22.23;;;;;;;1.73;100.00;100528.44;5274046;28;20103;-76
2023/03/06 05:38:50;;;;;;;31.43;22.17;;;;;;;1.57;100.00;100516.78;5274971;28;20041;-76
2023/03/06 05:41:21;;;;;;;30.87;22.10;;;;;;;1.69;100.00;100520.75;5256566;28;20115;-75
2023/03/06 05:47:21;;;;;;;32.70;23.17;;;;;;;1.50;100.00;100493.78;5274711;28;20044;-76
2023/03/06 05:49:52;;;;;;;29.63;21.33;;;;;;;1.55;100.00;100512.56;5275102;28;20032;-76
2023/03/06 05:52:24;;;;;;;34.20;22.50;;;;;;;1.23;100.00;100465.25;5255541;28;20036;-76
2023/03/06 05:54:55;;;;;;;30.60;21.93;;;;;;;1.54;100.00;100500.53;5274411;28;20648;-76
2023/03/06 05:57:26;;;;;;;29.37;22.60;;;;;;;1.26;100.00;100471.16;5256958;28;20531;-76
2023/03/06 05:59:58;;;;;;;35.83;23.40;;;;;;;1.62;100.00;100498.59;5257272;28;20123;-76
2023/03/06 06:02:29;;;;;;;33.23;23.10;;;;;;;1.54;100.00;100485.03;5257147;28;20036;-77
2023/03/06 06:05:06;;;;;;;33.50;24.07;;;;;;;1.57;100.00;100498.72;5260846;28;20052;-77
2023/03/06 06:07:38;;;;;;;34.23;24.10;;;;;;;1.52;100.00;100492.00;5278837;28;20032;-76
2023/03/06 06:10:10;;;;;;;33.20;23.50;;;;;;;1.85;100.00;100540.97;5260493;28;20039;-77
2023/03/06 06:12:42;;;;;;;30.83;22.77;;;;;;;1.57;100.00;100503.06;5260543;28;20032;-77
2023/03/06 06:15:14;;;;;;;35.23;24.33;;;;;;;1.76;100.00;100526.59;5260072;28;20039;-77
2023/03/06 06:17:48;;;;;;;33.93;23.13;;;;;;;1.55;100.00;100491.91;5260223;28;20039;-77
2023/03/06 06:20:20;;;;;;;34.22;24.25;;;;;;;1.76;100.00;100523.19;5278594;28;20048;-76
2023/03/06 06:23:00;;;;;;;33.93;24.73;;;;;;;1.75;100.00;100524.06;5278300;28;20028;-77
2023/03/06 06:25:32;;;;;;;33.57;23.73;;;;;;;1.71;100.00;100525.06;5277374;28;20032;-76
2023/03/06 06:28:04;;;;;;;30.97;23.30;;;;;;;1.88;100.00;100546.09;5274806;28;20033;-76
2023/03/06 06:30:36;;;;;;;32.20;23.43;;;;;;;1.82;100.00;100533.31;5269854;28;20704;-76
2023/03/06 06:33:07;;;;;;;35.83;24.23;;;;;;;1.63;100.00;100505.44;5278440;28;20024;-76
2023/03/06 06:35:38;;;;;;;33.17;24.43;;;;;;;1.83;100.00;100535.03;5278061;28;20426;-77
2023/03/06 06:38:10;;;;;;;33.47;24.70;;;;;;;1.85;100.00;100543.56;5276901;28;20117;-76
2023/03/06 06:40:41;;;;;;;30.30;23.00;;;;;;;1.63;100.00;100510.63;5273219;28;20112;-77
2023/03/06 06:43:12;;;;;;;31.80;23.43;;;;;;;1.42;100.00;100476.75;5256887;28;20095;-77
2023/03/06 06:45:44;;;;;;;33.87;24.40;;;;;;;1.37;100.00;100473.47;5261987;28;20033;-76
2023/03/06 06:48:15;;;;;;;30.83;22.50;;;;;;;1.55;100.00;100503.06;5256765;28;20036;-76
2023/03/06 06:50:54;;;;;;;33.53;24.47;;;;;;;1.60;100.00;100502.09;5239312;28;20129;-76
2023/03/06 06:53:25;;;;;;;36.10;25.83;;;;;;;1.57;100.00;100503.06;5256131;28;20096;-77
2023/03/06 06:55:58;;;;;;;40.23;25.20;;;;;;;1.58;100.00;100499.56;5272646;28;20113;-75
2023/03/06 06:58:29;;;;;;;35.97;26.50;;;;;;;1.68;100.00;100511.34;5260201;28;20094;-76
2023/03/06 07:01:06;;;;;;;37.53;26.57;;;;;;;1.62;100.00;100501.19;5277755;28;20025;-76
2023/03/06 07:03:38;;;;;;;38.80;25.80;;;;;;;1.67;100.00;100512.22;5277723;28;20108;-76
2023/03/06 07:06:10;;;;;;;36.93;25.83;;;;;;;1.79;100.00;100533.41;5258098;28;20056;-77
2023/03/06 07:08:41;;;;;;;36.60;24.73;;;;;;;1.75;100.00;100527.50;5259718;28;20106;-75
2023/03/06 07:11:16;;;;;;;40.87;27.90;;;;;;;1.89;100.00;100550.34;5276787;28;20589;-78
2023/03/06 07:13:47;;;;;;;;;;;;;;;1.99;100.00;100544.94;5276962;28;20027;-76
2023/03/06 07:16:19;;;;;;;35.60;24.03;;;;;;;1.79;100.00;100512.75;5257704;28;19920;-76
2023/03/06 07:18:50;;;;;;;38.13;27.53;;;;;;;1.91;100.00;100546.00;5276880;28;20024;-75
2023/03/06 07:21:21;;;;;;;39.53;27.53;;;;;;;1.73;100.00;100508.59;5251569;28;20036;-74
2023/03/06 07:23:56;;;;;;;38.47;27.27;;;;;;;1.98;100.00;100553.56;5258729;28;20021;-75
2023/03/06 07:26:27;;;;;;;37.83;27.83;;;;;;;1.93;100.00;100531.31;5259655;28;20031;-74
2023/03/06 07:28:58;;;;;;;39.00;26.07;;;;;;;2.05;100.00;100552.50;5262257;28;20103;-76
2023/03/06 07:31:30;;;;;;;42.53;29.63;;;;;;;1.97;100.00;100526.03;5263590;28;20021;-75
2023/03/06 07:34:01;;;;;;;42.10;28.27;;;;;;;2.13;100.00;100555.69;5274392;28;20391;-74
2023/03/06 07:36:33;;;;;;;47.17;29.90;;;;;;;2.17;100.00;100544.38;5270975;28;20040;-75
2023/03/06 07:39:08;;;;;;;39.47;29.10;;;;;;;2.20;100.00;100545.19;5271133;28;20472;-74
2023/03/06 07:41:39;;;;;;;40.90;28.57;;;;;;;2.24;100.00;100541.63;5237737;28;20039;-74
2023/03/06 07:44:11;;;;;;;45.53;30.50;;;;;;;2.25;100.00;100543.31;5257593;28;20460;-75
2023/03/06 07:46:42;;;;;;;42.83;28.20;;;;;;;2.24;100.00;100529.53;5276006;28;20051;-75
2023/03/06 07:49:13;;;;;;;43.97;30.33;;;;;;;2.26;100.00;100525.19;5275176;28;20036;-75
2023/03/06 07:51:45;;;;;;;38.93;28.43;;;;;;;2.30;100.00;100536.28;5257042;28;20063;-75
2023/03/06 07:54:16;;;;;;;39.33;29.07;;;;;;;2.30;100.00;100531.09;5274741;28;20455;-76
2023/03/06 07:56:52;;;;;;;41.40;29.47;;;;;;;2.36;100.00;100542.97;5274959;28;20037;-76
2023/03/06 07:59:24;;;;;;;45.97;32.90;;;;;;;2.47;100.00;100553.00;5274194;28;20108;-76
2023/03/06 08:01:56;;;;;;;44.30;30.27;;;;;;;2.33;100.00;100541.34;5256880;28;20108;-76
2023/03/06 08:04:27;;;;;;;47.70;31.80;;;;;;;2.34;100.00;100540.44;5270183;28;20729;-76
2023/03/06 08:06:59;;;;;;;43.30;31.10;;;;;;;2.41;100.00;100544.53;5260665;28;20102;-76
2023/03/06 08:09:30;;;;;;;47.20;31.60;;;;;;;2.36;100.00;100528.31;5272846;28;20039;-76
2023/03/06 08:12:02;;;;;;;43.37;28.73;;;;;;;2.34;100.00;100514.59;5274457;28;20028;-76
2023/03/06 08:14:34;;;;;;;42.87;29.83;;;;;;;2.42;100.00;100530.75;5274255;28;20024;-76
2023/03/06 08:17:05;;;;;;;38.27;28.17;;;;;;;2.40;100.00;100534.25;5273851;28;20035;-75
2023/03/06 08:19:36;;;;;;;41.60;28.27;;;;;;;2.61;100.00;100556.03;5274115;28;20039;-75
2023/03/06 08:22:09;;;;;;;43.03;29.20;;;;;;;2.66;100.00;100556.72;5273390;28;20032;-75
2023/03/06 08:24:41;;;;;;;42.17;26.63;;;;;;;2.57;100.00;100538.03;5256097;28;20395;-75
2023/03/06 08:27:12;;;;;;;37.93;26.67;;;;;;;2.64;100.00;100549.88;5273222;28;20036;-75
2023/03/06 08:29:44;;;;;;;40.87;28.00;;;;;;;2.58;100.00;100537.16;5274119;28;20032;-75
2023/03/06 08:32:15;;;;;;;40.67;27.00;;;;;;;2.54;100.00;100518.31;5273820;28;20129;-75
2023/03/06 08:34:46;;;;;;;38.47;26.67;;;;;;;2.69;100.00;100542.84;5273931;28;20020;-75
2023/03/06 08:37:18;;;;;;;37.37;26.67;;;;;;;2.83;100.00;100555.31;5272690;28;20028;-75
2023/03/06 08:39:49;;;;;;;37.93;27.43;;;;;;;2.60;100.00;100510.34;5273934;28;20103;-75
2023/03/06 08:42:20;;;;;;;37.53;25.83;;;;;;;2.90;100.00;100561.13;5255214;28;20399;-75
2023/03/06 08:44:52;;;;;;;35.13;24.83;;;;;;;2.97;100.00;100552.28;5272330;28;20115;-75
2023/03/06 08:47:23;;;;;;;39.40;26.57;;;;;;;2.92;100.00;100536.06;5255333;28;20462;-75
2023/03/06 08:49:54;;;;;;;35.90;25.87;;;;;;;3.07;100.00;100552.81;5273828;28;20487;-75
2023/03/06 08:52:26;;;;;;;34.20;25.30;;;;;;;2.97;100.00;100531.59;5272381;28;20113;-76
2023/03/06 08:55:02;;;;;;;34.73;24.33;;;;;;;3.18;100.00;100557.66;5255991;28;20032;-74
2023/03/06 08:57:33;;;;;;;34.37;23.93;;;;;;;3.21;100.00;100554.94;5255911;28;20082;-74
2023/03/06 09:00:07;;;;;;;36.53;25.37;;;;;;;3.05;100.00;100527.91;5273745;28;20024;-74
2023/03/06 09:02:39;;;;;;;33.15;23.50;;;;;;;3.10;100.00;100547.56;5273079;28;20519;-74
2023/03/06 09:05:10;;;;;;;29.27;21.30;;;;;;;3.27;100.00;100546.16;5271616;28;20068;-75
2023/03/06 09:07:42;;;;;;;32.53;22.87;;;;;;;3.19;100.00;100530.03;5271384;28;20121;-74
2023/03/06 09:10:15;;;;;;;31.03;21.47;;;;;;;3.31;100.00;100531.34;5273470;28;20027;-74
2023/03/06 09:12:48;;;;;;;28.37;21.30;;;;;;;3.39;100.00;100542.28;5260913;28;20515;-74
2023/03/06 09:15:21;;;;;;;33.13;23.47;;;;;;;3.28;100.00;100521.97;5240885;28;20552;-74
2023/03/06 09:17:53;;;;;;;35.53;23.40;;;;;;;3.47;100.00;100542.03;5273374;28;20035;-74
2023/03/06 09:20:24;;;;;;;27.43;21.97;;;;;;;3.55;100.00;100552.97;5273291;28;20024;-74
2023/03/06 09:22:55;;;;;;;32.27;22.87;;;;;;;3.67;100.00;100556.00;5272887;28;20028;-75
2023/03/06 09:25:27;;;;;;;33.87;22.87;;;;;;;3.49;100.00;100516.94;5272813;28;20028;-75
2023/03/06 09:27:58;;;;;;;32.47;22.53;;;;;;;3.74;100.00;100560.94;5273524;28;20032;-75
2023/03/06 09:30:29;;;;;;;33.83;22.30;;;;;;;3.83;100.00;100553.72;5272629;28;20160;-76
2023/03/06 09:33:01;;;;;;;30.87;23.20;;;;;;;3.80;100.00;100552.09;5273103;28;20028;-75
2023/03/06 09:35:32;;;;;;;30.00;21.80;;;;;;;3.89;100.00;100565.63;5272984;28;20116;-75
2023/03/06 09:38:04;;;;;;;26.47;20.63;;;;;;;3.77;100.00;100541.81;5273271;28;20092;-75
2023/03/06 09:40:49;;;;;;;28.97;21.63;;;;;;;3.94;100.00;100561.09;5277312;28;20476;-75
2023/03/06 09:43:30;;;;;;;31.27;23.50;;;;;;;3.93;100.00;100554.22;5277202;28;20024;-76
2023/03/06 09:46:18;;;;;;;28.33;20.63;;;;;;;4.03;100.00;100558.19;5277140;28;20101;-75
2023/03/06 09:49:09;;;;;;;25.87;19.27;;;;;;;3.92;100.00;100539.59;5277056;28;20043;-75
2023/03/06 09:51:46;;;;;;;29.03;19.80;;;;;;;4.07;100.00;100556.31;5257440;28;20032;-75
2023/03/06 09:54:41;;;;;;;30.13;21.57;;;;;;;4.11;100.00;100560.47;5265843;28;20025;-75
2023/03/06 09:57:20;;;;;;;26.70;20.90;;;;;;;4.16;100.00;100550.78;5257827;28;20391;-75
2023/03/06 09:59:59;;;;;;;26.77;19.90;;;;;;;4.21;100.00;100564.41;5277035;28;20086;-75
2023/03/06 10:02:44;;;;;;;23.97;18.00;;;;;;;4.12;100.00;100533.66;5276988;28;20028;-75
2023/03/06 10:05:20;;;;;;;;;;;;;;;4.41;100.00;100562.81;5275910;28;20389;-73
2023/03/06 10:07:59;;;;;;;23.03;13.90;;;;;;;4.26;100.00;100543.50;5276462;28;19913;-74
2023/03/06 10:10:45;;;;;;;18.97;14.03;;;;;;;4.43;100.00;100555.81;5276790;28;20442;-74
2023/03/06 10:13:24;;;;;;;22.80;15.70;;;;;;;4.44;100.00;100554.06;5264982;28;20111;-75
2023/03/06 10:16:13;;;;;;;20.00;13.87;;;;;;;4.46;100.00;100550.53;5276275;28;20384;-75
2023/03/06 10:18:45;;;;;;;15.47;12.27;;;;;;;4.43;100.00;100529.06;5276883;28;20435;-75
2023/03/06 10:21:32;;;;;;;18.73;13.43;;;;;;;4.61;100.00;100558.59;5275521;28;20024;-75
2023/03/06 10:24:40;;;;;;;17.40;14.13;;;;;;;4.60;100.00;100531.81;5258138;28;20036;-75
2023/03/06 10:27:31;;;;;;;18.70;15.10;;;;;;;4.83;100.00;100549.97;5262519;28;20510;-75
2023/03/06 10:30:21;;;;;;;21.03;16.00;;;;;;;4.89;100.00;100551.44;5276195;28;20043;-75
2023/03/06 10:32:57;;;;;;;21.07;15.40;;;;;;;4.83;100.00;100537.81;5276373;28;20328;-76
2023/03/06 10:35:46;;;;;;;17.90;14.10;;;;;;;4.86;100.00;100531.66;5257762;28;20020;-75
2023/03/06 10:38:17;;;;;;;21.77;14.90;;;;;;;4.97;100.00;100549.41;5276178;28;20024;-76
2023/03/06 10:41:02;;;;;;;18.07;14.30;;;;;;;4.98;100.00;100530.31;5276115;28;20040;-75
2023/03/06 10:43:36;;;;;;;22.63;16.57;;;;;;;5.06;100.00;100538.63;5276099;28;20031;-75
2023/03/06 10:46:09;;;;;;;19.00;15.32;;;;;;;4.98;100.00;100530.31;5275910;28;20025;-75
2023/03/06 10:48:41;;;;;;;21.00;15.03;;;;;;;5.03;100.00;100519.72;5276257;28;20369;-75
2023/03/06 10:51:21;;;;;;;22.93;15.40;;;;;;;5.09;100.00;100511.72;5273949;28;20104;-74
2023/03/06 10:54:17;;;;;;;24.23;17.47;;;;;;;5.24;100.00;100523.19;5276415;28;20012;-75
2023/03/06 10:56:48;;;;;;;27.57;16.73;;;;;;;5.27;100.00;100528.25;5276733;28;20543;-75
2023/03/06 10:59:24;;;;;;;19.37;15.77;;;;;;;5.19;100.00;100533.78;5256792;28;20206;-74
2023/03/06 11:02:22;;;;;;;19.53;14.43;;;;;;;5.35;100.00;100547.84;5275986;28;20025;-74
2023/03/06 11:04:55;;;;;;;18.73;13.07;;;;;;;5.28;100.00;100534.28;5275802;28;20019;-74
2023/03/06 11:07:31;;;;;;;17.40;13.80;;;;;;;5.42;100.00;100551.88;5274261;28;20093;-74
2023/03/06 11:10:02;;;;;;;17.97;13.70;;;;;;;5.51;100.00;100548.91;5257403;28;20028;-75
2023/03/06 11:12:36;;;;;;;17.60;13.20;;;;;;;5.49;100.00;100539.47;5257479;28;20488;-75
2023/03/06 11:15:07;;;;;;;16.58;13.23;;;;;;;5.52;100.00;100540.19;5275334;28;20484;-75
2023/03/06 11:17:48;;;;;;;18.07;13.37;;;;;;;5.48;100.00;100537.78;5275444;28;20037;-75
2023/03/06 11:20:20;;;;;;;20.07;14.13;;;;;;;5.52;100.00;100540.19;5273198;28;20028;-75
2023/03/06 11:23:17;;;;;;;17.87;14.13;;;;;;;5.61;100.00;100543.28;5255403;28;20039;-74
2023/03/06 11:26:01;;;;;;;16.70;13.00;;;;;;;5.67;100.00;100537.84;5273724;28;20021;-75
2023/03/06 11:29:05;;;;;;;15.85;11.98;;;;;;;5.70;100.00;100537.69;5255825;28;20048;-75
2023/03/06 11:31:51;;;;;;;16.23;12.60;;;;;;;5.60;100.00;100507.84;5274427;28;20036;-74
2023/03/06 11:34:35;;;;;;;17.23;11.70;;;;;;;5.62;100.00;100511.22;5274344;28;20468;-75
2023/03/06 11:37:32;;;;;;;19.77;12.50;;;;;;;5.77;100.00;100523.53;5273626;28;20073;-75
2023/03/06 11:40:26;;;;;;;16.23;12.03;;;;;;;5.77;100.00;100502.72;5236097;28;20036;-75
2023/03/06 11:43:16;;;;;;;16.23;12.63;;;;;;;5.93;100.00;100523.66;5275281;28;20032;-75
2023/03/06 11:45:58;;;;;;;16.37;11.43;;;;;;;5.80;100.00;100518.19;5275359;28;20024;-74
2023/03/06 11:48:45;;;;;;;16.93;12.10;;;;;;;5.93;100.00;100520.22;5274529;28;20032;-74
2023/03/06 11:51:21;;;;;;;16.73;10.50;;;;;;;5.88;100.00;100514.38;5274053;28;20025;-73